Arlington Heights, Ohio
Current Conditions -  °F | °C
As of 7:53 PM on Sunday 23 Nov 2014 (Local Time) from KHAO Reporting Station
Heavy Rain Heavy Rain  
Wind Chill: 13°   Ceiling: 6500
Heat Index: 13°   Visibility: 3mi
Dew Point: 12°   Wind: 13mph
Humidity: 93%   Direction: 140°SE
Pressure: 29.42"   Gusts: 31mph
Location:  39.236°N, 84.4599°W
Report Text: KHAO 240053Z AUTO 14011G27KT 3SM +RA BR FEW016 BKN065 OVC080 13/12 A2942 RMK AO2 PK WND 12027/0045 SLP962 P0022 T01330122
Loading
Personal Weather Stations






























Interactive Weather Map New forecast layout! Learn more

10-Day Weather Forecast

Advertisements
Track Severe Weather on mobile